sensor_id;sensor_type;location;lat;lon;timestamp;P1;durP1;ratioP1;P2;durP2;ratioP2
75358;SDS011;64046;51.978;5.934;2023-04-29T00:00:08;33.85;;;19.95;;
75358;SDS011;64046;51.978;5.934;2023-04-29T00:02:37;39.85;;;21.85;;
75358;SDS011;64046;51.978;5.934;2023-04-29T00:05:09;39.20;;;20.92;;
75358;SDS011;64046;51.978;5.934;2023-04-29T00:07:38;37.17;;;21.02;;
75358;SDS011;64046;51.978;5.934;2023-04-29T00:10:08;43.17;;;22.13;;
75358;SDS011;64046;51.978;5.934;2023-04-29T00:12:39;32.03;;;18.45;;
75358;SDS011;64046;51.978;5.934;2023-04-29T00:15:09;40.85;;;20.80;;
75358;SDS011;64046;51.978;5.934;2023-04-29T00:17:39;43.22;;;22.92;;
75358;SDS011;64046;51.978;5.934;2023-04-29T00:20:11;40.92;;;22.60;;
75358;SDS011;64046;51.978;5.934;2023-04-29T00:22:41;45.90;;;22.42;;
75358;SDS011;64046;51.978;5.934;2023-04-29T00:25:10;37.95;;;21.58;;
75358;SDS011;64046;51.978;5.934;2023-04-29T00:27:39;40.92;;;22.25;;
75358;SDS011;64046;51.978;5.934;2023-04-29T00:30:09;46.28;;;22.67;;
75358;SDS011;64046;51.978;5.934;2023-04-29T00:32:38;38.28;;;21.30;;
75358;SDS011;64046;51.978;5.934;2023-04-29T00:35:11;38.38;;;20.17;;
75358;SDS011;64046;51.978;5.934;2023-04-29T00:37:40;38.30;;;20.80;;
75358;SDS011;64046;51.978;5.934;2023-04-29T00:40:09;33.13;;;18.95;;
75358;SDS011;64046;51.978;5.934;2023-04-29T00:42:40;39.38;;;21.83;;
75358;SDS011;64046;51.978;5.934;2023-04-29T00:45:10;37.75;;;20.45;;
75358;SDS011;64046;51.978;5.934;2023-04-29T00:47:39;39.28;;;21.98;;
75358;SDS011;64046;51.978;5.934;2023-04-29T00:50:11;35.47;;;19.95;;
75358;SDS011;64046;51.978;5.934;2023-04-29T00:52:40;35.20;;;19.10;;
75358;SDS011;64046;51.978;5.934;2023-04-29T00:55:10;31.30;;;18.20;;
75358;SDS011;64046;51.978;5.934;2023-04-29T00:57:40;42.92;;;21.48;;
75358;SDS011;64046;51.978;5.934;2023-04-29T01:00:10;33.03;;;17.23;;
75358;SDS011;64046;51.978;5.934;2023-04-29T01:02:41;29.85;;;16.88;;
75358;SDS011;64046;51.978;5.934;2023-04-29T01:05:13;32.83;;;18.25;;
75358;SDS011;64046;51.978;5.934;2023-04-29T01:07:44;34.50;;;19.13;;
75358;SDS011;64046;51.978;5.934;2023-04-29T01:10:25;33.03;;;18.95;;
75358;SDS011;64046;51.978;5.934;2023-04-29T01:12:58;34.78;;;17.90;;
75358;SDS011;64046;51.978;5.934;2023-04-29T01:15:37;32.80;;;19.38;;
75358;SDS011;64046;51.978;5.934;2023-04-29T01:18:17;33.63;;;18.50;;
75358;SDS011;64046;51.978;5.934;2023-04-29T01:20:52;27.13;;;15.38;;
75358;SDS011;64046;51.978;5.934;2023-04-29T01:23:26;36.58;;;18.75;;
75358;SDS011;64046;51.978;5.934;2023-04-29T01:25:56;29.70;;;17.83;;
75358;SDS011;64046;51.978;5.934;2023-04-29T01:28:49;28.85;;;16.02;;
75358;SDS011;64046;51.978;5.934;2023-04-29T01:31:23;34.38;;;17.75;;
75358;SDS011;64046;51.978;5.934;2023-04-29T01:33:59;31.15;;;17.70;;
75358;SDS011;64046;51.978;5.934;2023-04-29T01:36:41;28.33;;;16.15;;
75358;SDS011;64046;51.978;5.934;2023-04-29T01:39:22;28.60;;;15.80;;
75358;SDS011;64046;51.978;5.934;2023-04-29T01:42:20;24.80;;;14.95;;
75358;SDS011;64046;51.978;5.934;2023-04-29T01:44:54;34.92;;;18.15;;
75358;SDS011;64046;51.978;5.934;2023-04-29T01:47:25;29.73;;;15.98;;
75358;SDS011;64046;51.978;5.934;2023-04-29T01:49:56;30.25;;;16.98;;
75358;SDS011;64046;51.978;5.934;2023-04-29T01:52:27;31.40;;;17.98;;
75358;SDS011;64046;51.978;5.934;2023-04-29T01:54:59;30.63;;;16.67;;
75358;SDS011;64046;51.978;5.934;2023-04-29T01:57:37;22.70;;;15.40;;
75358;SDS011;64046;51.978;5.934;2023-04-29T02:00:18;30.85;;;16.80;;
75358;SDS011;64046;51.978;5.934;2023-04-29T02:02:50;26.40;;;14.98;;
75358;SDS011;64046;51.978;5.934;2023-04-29T02:05:38;32.17;;;17.10;;
75358;SDS011;64046;51.978;5.934;2023-04-29T02:08:07;30.25;;;16.75;;
75358;SDS011;64046;51.978;5.934;2023-04-29T02:10:46;25.40;;;15.48;;
75358;SDS011;64046;51.978;5.934;2023-04-29T02:13:29;28.88;;;16.23;;
75358;SDS011;64046;51.978;5.934;2023-04-29T02:16:05;25.15;;;13.95;;
75358;SDS011;64046;51.978;5.934;2023-04-29T02:18:36;24.30;;;14.50;;
75358;SDS011;64046;51.978;5.934;2023-04-29T02:21:06;29.25;;;15.27;;
75358;SDS011;64046;51.978;5.934;2023-04-29T02:23:35;26.00;;;15.23;;
75358;SDS011;64046;51.978;5.934;2023-04-29T02:26:07;31.27;;;15.52;;
75358;SDS011;64046;51.978;5.934;2023-04-29T02:28:36;25.85;;;14.15;;
75358;SDS011;64046;51.978;5.934;2023-04-29T02:31:05;26.75;;;14.00;;
75358;SDS011;64046;51.978;5.934;2023-04-29T02:33:35;29.00;;;15.35;;
75358;SDS011;64046;51.978;5.934;2023-04-29T02:36:04;27.30;;;15.93;;
75358;SDS011;64046;51.978;5.934;2023-04-29T02:38:33;30.02;;;16.35;;
75358;SDS011;64046;51.978;5.934;2023-04-29T02:41:02;27.73;;;16.23;;
75358;SDS011;64046;51.978;5.934;2023-04-29T02:43:34;31.27;;;16.63;;
75358;SDS011;64046;51.978;5.934;2023-04-29T02:46:04;28.45;;;14.45;;
75358;SDS011;64046;51.978;5.934;2023-04-29T02:48:33;26.38;;;15.48;;
75358;SDS011;64046;51.978;5.934;2023-04-29T02:51:02;25.77;;;14.80;;
75358;SDS011;64046;51.978;5.934;2023-04-29T02:53:32;26.98;;;14.63;;
75358;SDS011;64046;51.978;5.934;2023-04-29T02:56:01;25.17;;;14.63;;
75358;SDS011;64046;51.978;5.934;2023-04-29T02:58:30;27.17;;;15.35;;
75358;SDS011;64046;51.978;5.934;2023-04-29T03:01:02;26.95;;;14.55;;
75358;SDS011;64046;51.978;5.934;2023-04-29T03:03:32;28.48;;;15.13;;
75358;SDS011;64046;51.978;5.934;2023-04-29T03:06:02;26.52;;;14.05;;
75358;SDS011;64046;51.978;5.934;2023-04-29T03:08:31;25.27;;;14.02;;
75358;SDS011;64046;51.978;5.934;2023-04-29T03:11:01;27.15;;;14.18;;
75358;SDS011;64046;51.978;5.934;2023-04-29T03:13:30;27.30;;;14.45;;
75358;SDS011;64046;51.978;5.934;2023-04-29T03:16:05;26.10;;;14.82;;
75358;SDS011;64046;51.978;5.934;2023-04-29T03:18:35;29.13;;;15.40;;
75358;SDS011;64046;51.978;5.934;2023-04-29T03:21:04;26.63;;;14.23;;
75358;SDS011;64046;51.978;5.934;2023-04-29T03:23:33;26.38;;;13.90;;
75358;SDS011;64046;51.978;5.934;2023-04-29T03:26:05;30.30;;;16.80;;
75358;SDS011;64046;51.978;5.934;2023-04-29T03:28:34;29.10;;;14.30;;
75358;SDS011;64046;51.978;5.934;2023-04-29T03:31:06;24.30;;;14.35;;
75358;SDS011;64046;51.978;5.934;2023-04-29T03:33:36;29.90;;;15.40;;
75358;SDS011;64046;51.978;5.934;2023-04-29T03:36:06;31.52;;;15.77;;
75358;SDS011;64046;51.978;5.934;2023-04-29T03:38:49;25.02;;;14.95;;
75358;SDS011;64046;51.978;5.934;2023-04-29T03:41:18;26.75;;;14.23;;
75358;SDS011;64046;51.978;5.934;2023-04-29T03:43:47;28.63;;;14.18;;
75358;SDS011;64046;51.978;5.934;2023-04-29T03:46:19;20.83;;;11.98;;
75358;SDS011;64046;51.978;5.934;2023-04-29T03:48:48;28.30;;;14.13;;
75358;SDS011;64046;51.978;5.934;2023-04-29T03:51:21;23.23;;;13.70;;
75358;SDS011;64046;51.978;5.934;2023-04-29T03:53:53;26.45;;;14.45;;
75358;SDS011;64046;51.978;5.934;2023-04-29T03:56:24;26.23;;;14.13;;
75358;SDS011;64046;51.978;5.934;2023-04-29T03:58:53;26.08;;;14.60;;
75358;SDS011;64046;51.978;5.934;2023-04-29T04:01:27;26.33;;;14.07;;
75358;SDS011;64046;51.978;5.934;2023-04-29T04:03:57;29.05;;;15.00;;
75358;SDS011;64046;51.978;5.934;2023-04-29T04:06:26;25.35;;;15.00;;
75358;SDS011;64046;51.978;5.934;2023-04-29T04:08:56;24.20;;;13.15;;
75358;SDS011;64046;51.978;5.934;2023-04-29T04:11:28;25.58;;;14.35;;
75358;SDS011;64046;51.978;5.934;2023-04-29T04:14:01;23.65;;;14.13;;
75358;SDS011;64046;51.978;5.934;2023-04-29T04:16:33;21.33;;;10.93;;
75358;SDS011;64046;51.978;5.934;2023-04-29T04:19:02;24.27;;;13.85;;
75358;SDS011;64046;51.978;5.934;2023-04-29T04:21:35;21.50;;;12.02;;
75358;SDS011;64046;51.978;5.934;2023-04-29T04:24:08;22.50;;;13.10;;
75358;SDS011;64046;51.978;5.934;2023-04-29T04:26:38;17.23;;;11.15;;
75358;SDS011;64046;51.978;5.934;2023-04-29T04:29:14;28.05;;;14.15;;
75358;SDS011;64046;51.978;5.934;2023-04-29T04:32:01;25.17;;;14.00;;
75358;SDS011;64046;51.978;5.934;2023-04-29T04:34:31;20.15;;;13.07;;
75358;SDS011;64046;51.978;5.934;2023-04-29T04:37:01;25.65;;;14.27;;
75358;SDS011;64046;51.978;5.934;2023-04-29T04:39:32;19.83;;;11.60;;
75358;SDS011;64046;51.978;5.934;2023-04-29T04:42:01;20.92;;;12.52;;
75358;SDS011;64046;51.978;5.934;2023-04-29T04:44:32;24.27;;;14.10;;
75358;SDS011;64046;51.978;5.934;2023-04-29T04:47:09;23.05;;;12.95;;
75358;SDS011;64046;51.978;5.934;2023-04-29T04:49:49;20.33;;;11.35;;
75358;SDS011;64046;51.978;5.934;2023-04-29T04:52:20;22.33;;;13.23;;
75358;SDS011;64046;51.978;5.934;2023-04-29T04:54:59;22.15;;;12.68;;
75358;SDS011;64046;51.978;5.934;2023-04-29T04:57:31;22.42;;;13.27;;
75358;SDS011;64046;51.978;5.934;2023-04-29T05:00:00;25.08;;;14.75;;
75358;SDS011;64046;51.978;5.934;2023-04-29T05:02:32;21.52;;;12.90;;
75358;SDS011;64046;51.978;5.934;2023-04-29T05:05:01;23.17;;;13.93;;
75358;SDS011;64046;51.978;5.934;2023-04-29T05:07:34;21.55;;;12.90;;
75358;SDS011;64046;51.978;5.934;2023-04-29T05:10:05;20.75;;;13.20;;
75358;SDS011;64046;51.978;5.934;2023-04-29T05:12:44;22.00;;;13.90;;
75358;SDS011;64046;51.978;5.934;2023-04-29T05:15:13;20.55;;;12.45;;
75358;SDS011;64046;51.978;5.934;2023-04-29T05:17:47;20.58;;;12.63;;
75358;SDS011;64046;51.978;5.934;2023-04-29T05:20:16;17.80;;;11.50;;
75358;SDS011;64046;51.978;5.934;2023-04-29T05:22:45;19.92;;;11.68;;
75358;SDS011;64046;51.978;5.934;2023-04-29T05:25:15;21.98;;;11.95;;
75358;SDS011;64046;51.978;5.934;2023-04-29T05:27:44;21.10;;;12.77;;
75358;SDS011;64046;51.978;5.934;2023-04-29T05:30:16;22.38;;;13.40;;
75358;SDS011;64046;51.978;5.934;2023-04-29T05:32:48;23.40;;;12.85;;
75358;SDS011;64046;51.978;5.934;2023-04-29T05:35:20;22.67;;;13.18;;
75358;SDS011;64046;51.978;5.934;2023-04-29T05:37:50;20.55;;;13.15;;
75358;SDS011;64046;51.978;5.934;2023-04-29T05:40:42;20.63;;;11.98;;
75358;SDS011;64046;51.978;5.934;2023-04-29T05:43:41;16.13;;;10.30;;
75358;SDS011;64046;51.978;5.934;2023-04-29T05:46:12;20.55;;;12.73;;
75358;SDS011;64046;51.978;5.934;2023-04-29T05:48:44;20.90;;;13.10;;
75358;SDS011;64046;51.978;5.934;2023-04-29T05:51:14;23.63;;;13.15;;
75358;SDS011;64046;51.978;5.934;2023-04-29T05:53:43;15.52;;;10.32;;
75358;SDS011;64046;51.978;5.934;2023-04-29T05:56:12;22.67;;;12.13;;
75358;SDS011;64046;51.978;5.934;2023-04-29T05:58:41;22.88;;;13.38;;
75358;SDS011;64046;51.978;5.934;2023-04-29T06:01:10;20.45;;;12.65;;
75358;SDS011;64046;51.978;5.934;2023-04-29T06:03:39;24.45;;;12.60;;
75358;SDS011;64046;51.978;5.934;2023-04-29T06:06:37;21.67;;;13.15;;
75358;SDS011;64046;51.978;5.934;2023-04-29T06:09:19;18.38;;;11.45;;
75358;SDS011;64046;51.978;5.934;2023-04-29T06:11:48;21.20;;;12.93;;
75358;SDS011;64046;51.978;5.934;2023-04-29T06:14:20;23.63;;;13.35;;
75358;SDS011;64046;51.978;5.934;2023-04-29T06:16:49;18.42;;;11.98;;
75358;SDS011;64046;51.978;5.934;2023-04-29T06:19:18;16.38;;;11.20;;
75358;SDS011;64046;51.978;5.934;2023-04-29T06:21:51;26.02;;;13.82;;
75358;SDS011;64046;51.978;5.934;2023-04-29T06:24:20;20.83;;;13.30;;
75358;SDS011;64046;51.978;5.934;2023-04-29T06:26:49;20.58;;;12.68;;
75358;SDS011;64046;51.978;5.934;2023-04-29T06:29:19;21.25;;;13.23;;
75358;SDS011;64046;51.978;5.934;2023-04-29T06:31:48;21.05;;;13.35;;
75358;SDS011;64046;51.978;5.934;2023-04-29T06:34:18;19.48;;;11.50;;
75358;SDS011;64046;51.978;5.934;2023-04-29T06:37:09;25.38;;;14.27;;
75358;SDS011;64046;51.978;5.934;2023-04-29T06:39:55;27.48;;;13.80;;
75358;SDS011;64046;51.978;5.934;2023-04-29T06:42:41;19.95;;;13.02;;
75358;SDS011;64046;51.978;5.934;2023-04-29T06:45:29;23.63;;;13.00;;
75358;SDS011;64046;51.978;5.934;2023-04-29T06:48:06;22.05;;;13.02;;
75358;SDS011;64046;51.978;5.934;2023-04-29T06:50:50;26.17;;;13.75;;
75358;SDS011;64046;51.978;5.934;2023-04-29T06:53:22;21.83;;;12.27;;
75358;SDS011;64046;51.978;5.934;2023-04-29T06:55:52;19.73;;;11.55;;
75358;SDS011;64046;51.978;5.934;2023-04-29T06:58:21;22.20;;;12.48;;
75358;SDS011;64046;51.978;5.934;2023-04-29T07:00:50;27.90;;;13.23;;
75358;SDS011;64046;51.978;5.934;2023-04-29T07:03:21;28.15;;;12.82;;
75358;SDS011;64046;51.978;5.934;2023-04-29T07:05:50;18.73;;;10.25;;
75358;SDS011;64046;51.978;5.934;2023-04-29T07:08:22;19.42;;;11.75;;
75358;SDS011;64046;51.978;5.934;2023-04-29T07:10:52;18.63;;;12.13;;
75358;SDS011;64046;51.978;5.934;2023-04-29T07:13:23;19.08;;;11.70;;
75358;SDS011;64046;51.978;5.934;2023-04-29T07:15:52;22.48;;;11.65;;
75358;SDS011;64046;51.978;5.934;2023-04-29T07:18:21;17.27;;;10.10;;
75358;SDS011;64046;51.978;5.934;2023-04-29T07:20:50;18.25;;;10.98;;
75358;SDS011;64046;51.978;5.934;2023-04-29T07:23:23;16.35;;;9.85;;
75358;SDS011;64046;51.978;5.934;2023-04-29T07:25:52;17.77;;;11.75;;
75358;SDS011;64046;51.978;5.934;2023-04-29T07:28:21;19.20;;;11.18;;
75358;SDS011;64046;51.978;5.934;2023-04-29T07:30:52;15.60;;;9.55;;
75358;SDS011;64046;51.978;5.934;2023-04-29T07:33:21;23.00;;;10.88;;
75358;SDS011;64046;51.978;5.934;2023-04-29T07:35:50;18.10;;;11.32;;
75358;SDS011;64046;51.978;5.934;2023-04-29T07:38:19;22.83;;;11.90;;
75358;SDS011;64046;51.978;5.934;2023-04-29T07:40:51;20.85;;;10.52;;
75358;SDS011;64046;51.978;5.934;2023-04-29T07:43:21;16.50;;;11.05;;
75358;SDS011;64046;51.978;5.934;2023-04-29T07:45:50;16.30;;;9.90;;
75358;SDS011;64046;51.978;5.934;2023-04-29T07:48:20;21.10;;;9.90;;
75358;SDS011;64046;51.978;5.934;2023-04-29T07:50:49;16.55;;;9.48;;
75358;SDS011;64046;51.978;5.934;2023-04-29T07:53:18;20.30;;;9.80;;
75358;SDS011;64046;51.978;5.934;2023-04-29T07:55:52;22.70;;;9.75;;
75358;SDS011;64046;51.978;5.934;2023-04-29T07:58:22;13.18;;;8.68;;
75358;SDS011;64046;51.978;5.934;2023-04-29T08:00:51;18.02;;;9.95;;
75358;SDS011;64046;51.978;5.934;2023-04-29T08:03:20;17.45;;;8.77;;
75358;SDS011;64046;51.978;5.934;2023-04-29T08:05:49;14.90;;;9.50;;
75358;SDS011;64046;51.978;5.934;2023-04-29T08:08:18;17.95;;;9.65;;
75358;SDS011;64046;51.978;5.934;2023-04-29T08:10:53;12.82;;;8.13;;
75358;SDS011;64046;51.978;5.934;2023-04-29T08:13:22;14.57;;;8.80;;
75358;SDS011;64046;51.978;5.934;2023-04-29T08:15:51;19.98;;;10.98;;
75358;SDS011;64046;51.978;5.934;2023-04-29T08:18:21;23.40;;;11.13;;
75358;SDS011;64046;51.978;5.934;2023-04-29T08:20:50;15.95;;;8.50;;
75358;SDS011;64046;51.978;5.934;2023-04-29T08:23:19;15.30;;;8.80;;
75358;SDS011;64046;51.978;5.934;2023-04-29T08:25:48;11.63;;;7.40;;
75358;SDS011;64046;51.978;5.934;2023-04-29T08:28:22;14.55;;;8.45;;
75358;SDS011;64046;51.978;5.934;2023-04-29T08:30:52;13.23;;;8.15;;
75358;SDS011;64046;51.978;5.934;2023-04-29T08:33:21;14.80;;;8.88;;
75358;SDS011;64046;51.978;5.934;2023-04-29T08:35:56;14.60;;;7.90;;
75358;SDS011;64046;51.978;5.934;2023-04-29T08:38:28;16.52;;;9.15;;
75358;SDS011;64046;51.978;5.934;2023-04-29T08:40:57;15.15;;;8.95;;
75358;SDS011;64046;51.978;5.934;2023-04-29T08:43:29;16.80;;;7.78;;
75358;SDS011;64046;51.978;5.934;2023-04-29T08:46:00;15.38;;;8.25;;
75358;SDS011;64046;51.978;5.934;2023-04-29T08:48:31;11.68;;;8.32;;
75358;SDS011;64046;51.978;5.934;2023-04-29T08:51:01;15.55;;;8.48;;
75358;SDS011;64046;51.978;5.934;2023-04-29T08:53:30;13.48;;;7.65;;
75358;SDS011;64046;51.978;5.934;2023-04-29T08:56:01;12.82;;;7.45;;
75358;SDS011;64046;51.978;5.934;2023-04-29T08:58:39;15.77;;;8.20;;
75358;SDS011;64046;51.978;5.934;2023-04-29T09:01:09;12.40;;;7.85;;
75358;SDS011;64046;51.978;5.934;2023-04-29T09:03:39;11.45;;;7.13;;
75358;SDS011;64046;51.978;5.934;2023-04-29T09:06:14;14.55;;;7.93;;
75358;SDS011;64046;51.978;5.934;2023-04-29T09:08:44;13.93;;;7.88;;
75358;SDS011;64046;51.978;5.934;2023-04-29T09:11:13;16.55;;;7.53;;
75358;SDS011;64046;51.978;5.934;2023-04-29T09:13:45;13.23;;;7.18;;
75358;SDS011;64046;51.978;5.934;2023-04-29T09:16:14;13.05;;;7.55;;
75358;SDS011;64046;51.978;5.934;2023-04-29T09:18:44;10.85;;;6.20;;
75358;SDS011;64046;51.978;5.934;2023-04-29T09:21:15;14.48;;;7.53;;
75358;SDS011;64046;51.978;5.934;2023-04-29T09:23:45;13.15;;;5.65;;
75358;SDS011;64046;51.978;5.934;2023-04-29T09:26:15;11.00;;;6.22;;
75358;SDS011;64046;51.978;5.934;2023-04-29T09:28:48;11.18;;;6.47;;
75358;SDS011;64046;51.978;5.934;2023-04-29T09:31:34;11.82;;;5.75;;
75358;SDS011;64046;51.978;5.934;2023-04-29T09:34:05;13.02;;;6.82;;
75358;SDS011;64046;51.978;5.934;2023-04-29T09:36:35;10.95;;;6.20;;
75358;SDS011;64046;51.978;5.934;2023-04-29T09:39:05;14.25;;;6.10;;
75358;SDS011;64046;51.978;5.934;2023-04-29T09:41:37;8.68;;;6.03;;
75358;SDS011;64046;51.978;5.934;2023-04-29T09:44:13;11.07;;;6.07;;
75358;SDS011;64046;51.978;5.934;2023-04-29T09:46:42;12.43;;;6.50;;
75358;SDS011;64046;51.978;5.934;2023-04-29T09:49:21;9.40;;;5.75;;
75358;SDS011;64046;51.978;5.934;2023-04-29T09:51:52;7.53;;;5.30;;
75358;SDS011;64046;51.978;5.934;2023-04-29T09:54:22;10.27;;;5.93;;
75358;SDS011;64046;51.978;5.934;2023-04-29T09:56:53;7.50;;;4.80;;
75358;SDS011;64046;51.978;5.934;2023-04-29T09:59:26;12.68;;;5.72;;
75358;SDS011;64046;51.978;5.934;2023-04-29T10:01:56;9.05;;;4.78;;
75358;SDS011;64046;51.978;5.934;2023-04-29T10:04:26;9.98;;;5.45;;
75358;SDS011;64046;51.978;5.934;2023-04-29T10:06:55;9.45;;;5.47;;
75358;SDS011;64046;51.978;5.934;2023-04-29T10:09:25;13.00;;;5.82;;
75358;SDS011;64046;51.978;5.934;2023-04-29T10:11:54;10.95;;;6.60;;
75358;SDS011;64046;51.978;5.934;2023-04-29T10:14:26;10.30;;;5.95;;
75358;SDS011;64046;51.978;5.934;2023-04-29T10:16:58;10.38;;;5.68;;
75358;SDS011;64046;51.978;5.934;2023-04-29T10:19:32;9.52;;;5.43;;
75358;SDS011;64046;51.978;5.934;2023-04-29T10:22:06;10.13;;;6.15;;
75358;SDS011;64046;51.978;5.934;2023-04-29T10:24:37;8.80;;;5.43;;
75358;SDS011;64046;51.978;5.934;2023-04-29T10:27:08;11.95;;;5.68;;
75358;SDS011;64046;51.978;5.934;2023-04-29T10:29:41;7.65;;;5.30;;
75358;SDS011;64046;51.978;5.934;2023-04-29T10:32:12;7.93;;;5.25;;
75358;SDS011;64046;51.978;5.934;2023-04-29T10:34:41;8.30;;;5.05;;
75358;SDS011;64046;51.978;5.934;2023-04-29T10:37:11;7.70;;;4.57;;
75358;SDS011;64046;51.978;5.934;2023-04-29T10:39:43;7.20;;;4.50;;
75358;SDS011;64046;51.978;5.934;2023-04-29T10:42:20;6.97;;;4.50;;
75358;SDS011;64046;51.978;5.934;2023-04-29T10:45:21;6.63;;;3.70;;
75358;SDS011;64046;51.978;5.934;2023-04-29T10:53:30;8.05;;;4.75;;
75358;SDS011;64046;51.978;5.934;2023-04-29T10:56:04;9.55;;;4.97;;
75358;SDS011;64046;51.978;5.934;2023-04-29T10:58:37;10.65;;;4.82;;
75358;SDS011;64046;51.978;5.934;2023-04-29T11:01:11;6.40;;;3.90;;
75358;SDS011;64046;51.978;5.934;2023-04-29T11:03:46;9.52;;;4.40;;
75358;SDS011;64046;51.978;5.934;2023-04-29T11:06:23;9.38;;;4.70;;
75358;SDS011;64046;51.978;5.934;2023-04-29T11:09:00;13.82;;;4.38;;
75358;SDS011;64046;51.978;5.934;2023-04-29T11:11:48;8.77;;;4.40;;
75358;SDS011;64046;51.978;5.934;2023-04-29T11:14:28;8.57;;;4.18;;
75358;SDS011;64046;51.978;5.934;2023-04-29T11:17:01;7.93;;;4.47;;
75358;SDS011;64046;51.978;5.934;2023-04-29T11:19:32;12.23;;;4.38;;
75358;SDS011;64046;51.978;5.934;2023-04-29T11:22:13;5.95;;;3.50;;
75358;SDS011;64046;51.978;5.934;2023-04-29T11:24:54;5.47;;;3.42;;
75358;SDS011;64046;51.978;5.934;2023-04-29T11:27:25;7.63;;;5.07;;
75358;SDS011;64046;51.978;5.934;2023-04-29T11:29:57;7.53;;;4.15;;
75358;SDS011;64046;51.978;5.934;2023-04-29T11:32:33;6.93;;;3.53;;
75358;SDS011;64046;51.978;5.934;2023-04-29T11:35:06;7.40;;;4.03;;
75358;SDS011;64046;51.978;5.934;2023-04-29T11:37:36;7.63;;;4.22;;
75358;SDS011;64046;51.978;5.934;2023-04-29T11:40:07;6.68;;;3.67;;
75358;SDS011;64046;51.978;5.934;2023-04-29T11:42:39;6.28;;;4.20;;
75358;SDS011;64046;51.978;5.934;2023-04-29T11:45:10;4.65;;;3.42;;
75358;SDS011;64046;51.978;5.934;2023-04-29T11:47:44;6.18;;;3.80;;
75358;SDS011;64046;51.978;5.934;2023-04-29T11:50:14;6.43;;;3.42;;
75358;SDS011;64046;51.978;5.934;2023-04-29T11:52:45;7.13;;;3.40;;
75358;SDS011;64046;51.978;5.934;2023-04-29T11:55:15;7.63;;;2.80;;
75358;SDS011;64046;51.978;5.934;2023-04-29T11:57:47;4.72;;;2.75;;
75358;SDS011;64046;51.978;5.934;2023-04-29T12:00:17;6.22;;;2.90;;
75358;SDS011;64046;51.978;5.934;2023-04-29T12:02:49;4.72;;;3.33;;
75358;SDS011;64046;51.978;5.934;2023-04-29T12:05:18;5.40;;;3.25;;
75358;SDS011;64046;51.978;5.934;2023-04-29T12:07:48;5.90;;;2.85;;
75358;SDS011;64046;51.978;5.934;2023-04-29T12:10:17;5.65;;;3.20;;
75358;SDS011;64046;51.978;5.934;2023-04-29T12:12:46;5.78;;;3.00;;
75358;SDS011;64046;51.978;5.934;2023-04-29T12:15:16;4.18;;;2.88;;
75358;SDS011;64046;51.978;5.934;2023-04-29T12:17:45;5.35;;;3.58;;
75358;SDS011;64046;51.978;5.934;2023-04-29T12:20:17;5.97;;;3.78;;
75358;SDS011;64046;51.978;5.934;2023-04-29T12:22:46;5.32;;;3.13;;
75358;SDS011;64046;51.978;5.934;2023-04-29T12:25:15;5.88;;;2.67;;
75358;SDS011;64046;51.978;5.934;2023-04-29T12:27:47;6.78;;;3.83;;
75358;SDS011;64046;51.978;5.934;2023-04-29T12:30:16;5.97;;;3.17;;
75358;SDS011;64046;51.978;5.934;2023-04-29T12:32:46;6.07;;;3.25;;
75358;SDS011;64046;51.978;5.934;2023-04-29T12:35:18;4.32;;;3.03;;
75358;SDS011;64046;51.978;5.934;2023-04-29T12:37:48;4.35;;;2.78;;
75358;SDS011;64046;51.978;5.934;2023-04-29T12:40:18;6.40;;;3.35;;
75358;SDS011;64046;51.978;5.934;2023-04-29T12:42:48;5.18;;;2.92;;
75358;SDS011;64046;51.978;5.934;2023-04-29T12:45:27;4.97;;;3.25;;
75358;SDS011;64046;51.978;5.934;2023-04-29T12:47:58;8.05;;;2.88;;
75358;SDS011;64046;51.978;5.934;2023-04-29T12:50:32;7.95;;;2.83;;
75358;SDS011;64046;51.978;5.934;2023-04-29T12:53:03;6.57;;;3.15;;
75358;SDS011;64046;51.978;5.934;2023-04-29T12:55:33;7.40;;;3.20;;
75358;SDS011;64046;51.978;5.934;2023-04-29T12:58:03;6.20;;;3.15;;
75358;SDS011;64046;51.978;5.934;2023-04-29T13:00:34;5.72;;;2.72;;
75358;SDS011;64046;51.978;5.934;2023-04-29T13:03:03;5.30;;;2.63;;
75358;SDS011;64046;51.978;5.934;2023-04-29T13:05:35;3.25;;;2.63;;
75358;SDS011;64046;51.978;5.934;2023-04-29T13:08:04;3.03;;;2.22;;
75358;SDS011;64046;51.978;5.934;2023-04-29T13:10:33;6.20;;;2.53;;
75358;SDS011;64046;51.978;5.934;2023-04-29T13:13:03;3.92;;;2.67;;
75358;SDS011;64046;51.978;5.934;2023-04-29T13:15:34;5.85;;;3.30;;
75358;SDS011;64046;51.978;5.934;2023-04-29T13:18:04;4.68;;;2.83;;
75358;SDS011;64046;51.978;5.934;2023-04-29T13:20:36;5.75;;;2.80;;
75358;SDS011;64046;51.978;5.934;2023-04-29T13:23:05;6.63;;;2.83;;
75358;SDS011;64046;51.978;5.934;2023-04-29T13:25:34;4.30;;;2.60;;
75358;SDS011;64046;51.978;5.934;2023-04-29T13:28:03;5.70;;;2.60;;
75358;SDS011;64046;51.978;5.934;2023-04-29T13:30:32;5.32;;;2.42;;
75358;SDS011;64046;51.978;5.934;2023-04-29T13:33:02;5.50;;;2.55;;
75358;SDS011;64046;51.978;5.934;2023-04-29T13:35:31;6.00;;;3.20;;
75358;SDS011;64046;51.978;5.934;2023-04-29T13:38:03;3.72;;;2.38;;
75358;SDS011;64046;51.978;5.934;2023-04-29T13:40:32;2.70;;;2.00;;
75358;SDS011;64046;51.978;5.934;2023-04-29T13:43:01;3.30;;;2.30;;
75358;SDS011;64046;51.978;5.934;2023-04-29T13:45:31;3.50;;;1.83;;
75358;SDS011;64046;51.978;5.934;2023-04-29T13:48:01;4.50;;;2.00;;
75358;SDS011;64046;51.978;5.934;2023-04-29T13:50:30;3.95;;;2.30;;
75358;SDS011;64046;51.978;5.934;2023-04-29T13:52:59;3.33;;;1.88;;
75358;SDS011;64046;51.978;5.934;2023-04-29T13:55:31;3.60;;;2.15;;
75358;SDS011;64046;51.978;5.934;2023-04-29T13:58:00;3.28;;;1.92;;
75358;SDS011;64046;51.978;5.934;2023-04-29T14:00:29;3.72;;;2.15;;
75358;SDS011;64046;51.978;5.934;2023-04-29T14:02:58;4.85;;;2.28;;
75358;SDS011;64046;51.978;5.934;2023-04-29T14:05:28;3.80;;;2.28;;
75358;SDS011;64046;51.978;5.934;2023-04-29T14:07:57;5.32;;;2.35;;
75358;SDS011;64046;51.978;5.934;2023-04-29T14:10:26;3.28;;;1.77;;
75358;SDS011;64046;51.978;5.934;2023-04-29T14:12:58;3.22;;;1.98;;
75358;SDS011;64046;51.978;5.934;2023-04-29T14:15:27;3.45;;;2.30;;
75358;SDS011;64046;51.978;5.934;2023-04-29T14:17:57;3.85;;;2.13;;
75358;SDS011;64046;51.978;5.934;2023-04-29T14:20:26;3.20;;;2.00;;
75358;SDS011;64046;51.978;5.934;2023-04-29T14:22:55;4.47;;;1.88;;
75358;SDS011;64046;51.978;5.934;2023-04-29T14:25:24;4.53;;;2.50;;
75358;SDS011;64046;51.978;5.934;2023-04-29T14:27:53;2.50;;;2.08;;
75358;SDS011;64046;51.978;5.934;2023-04-29T14:30:25;4.43;;;2.50;;
75358;SDS011;64046;51.978;5.934;2023-04-29T14:32:54;5.88;;;2.42;;
75358;SDS011;64046;51.978;5.934;2023-04-29T14:35:23;2.85;;;1.90;;
75358;SDS011;64046;51.978;5.934;2023-04-29T14:37:52;4.20;;;1.98;;
75358;SDS011;64046;51.978;5.934;2023-04-29T14:40:21;3.83;;;2.00;;
75358;SDS011;64046;51.978;5.934;2023-04-29T14:42:50;3.95;;;2.33;;
75358;SDS011;64046;51.978;5.934;2023-04-29T14:45:19;3.70;;;1.98;;
75358;SDS011;64046;51.978;5.934;2023-04-29T14:47:51;4.00;;;1.90;;
75358;SDS011;64046;51.978;5.934;2023-04-29T14:50:20;4.43;;;2.05;;
75358;SDS011;64046;51.978;5.934;2023-04-29T14:52:50;4.75;;;2.33;;
75358;SDS011;64046;51.978;5.934;2023-04-29T14:55:19;3.30;;;2.08;;
75358;SDS011;64046;51.978;5.934;2023-04-29T14:57:48;4.32;;;1.90;;
75358;SDS011;64046;51.978;5.934;2023-04-29T15:17:49;3.50;;;1.75;;
75358;SDS011;64046;51.978;5.934;2023-04-29T15:20:18;3.30;;;2.20;;